Cleveland, SC

8:21 AM EDT on August 31, 2015 (GMT -0400)
Homestead1229 | | Change Station
CLOSE
Current Station
Personal Weather Station
Location: Easley, SC
Elevation: 1168 ft
Nearby Weather Stations

Elev 1168 ft 34.95 °N, 82.60 °W | Updated 37 seconds ago

Clear
Clear
61.9 °F
Feels Like 61.9 °F
N
0.0
Wind Variable Wind from North
Gusts 0.0 mph

Today
High -- | Low -- °F
--% Chance of Precip.
Yesterday
High -- | Low -- °F
Precip. -- in
7:02 AM 7:58 PM
Waning Gibbous, 95% visible
Pressure 30.13 in
Visibility 5.0 miles
Clouds Clear
Dew Point 59 °F
Humidity 89%
Rainfall 0.00 in
Snow Depth Not available.
UV 0 out of 12
Pollen 8.40 out of 12
Air Quality Not available.
Flu Activity Not available.
METAR KLQK 311155Z AUTO 00000KT 5SM BR CLR 15/15 A3013 RMK AO2 T01500146 10319 20142
Pressure 30.13 in
Visibility 5.0 miles
Clouds Clear
Dew Point 59 °F
Humidity 89%
Rainfall 0.00 in
Snow Depth Not available.
UV 0 out of 12
Pollen 8.40 out of 12
Air Quality Not available.
Flu Activity Not available.
METAR KLQK 311155Z AUTO 00000KT 5SM BR CLR 15/15 A3013 RMK AO2 T01500146 10319 20142

10-Day Weather Forecast

×

Almanac

Astronomy

Aug. 31, 2015 Rise Set
Actual Time
Civil Twilight
Nautical Twilight
Astronomical Twilight
Moon
Length of Visible Light
Length of Day
Tomorrow will be .
, % of the Moon is Illuminated

Today's Extremes

State Highs State Lows

Community

WunderPhotos

Upload Photos

1,851,222 photos uploaded!

WunderBlogs® & News

Nearby

Air Quality

  Air Quality AQ Index Pollutant
Not available.

Snow Depth

Station Depth Elevation

Earthquake Activity

City Distance Mag. Time & Date
Minimum magnitude displayed is 2.5.

Coastal Water Temperatures

Place Temperature

Stations

Nearby Weather Stations

Station Location Temp. Windchill Dew Point Humidity Wind Precip. Elev Updated Type